Time,TemperatureF,DewpointF,PressureIn,WindDirection,WindDirectionDegrees,WindSpeedMPH,WindSpeedGustMPH,Humidity,HourlyPrecipIn,Conditions,Clouds,dailyrainin,SoftwareType,DateUTC
2013-04-23 00:00:00,40.9,16.6,30.48,ENE,68,14.0,17.0,37,0.00,,---,0.00,VWS V14.01,2013-04-23 04:00:00,
2013-04-23 00:01:00,40.9,16.6,30.48,ENE,65,6.0,17.0,37,0.00,,---,0.00,VWS V14.01,2013-04-23 04:01:00,
2013-04-23 00:06:00,40.9,16.6,30.48,ENE,58,4.0,12.0,37,0.00,,---,0.00,VWS V14.01,2013-04-23 04:06:00,
2013-04-23 00:11:00,40.9,16.6,30.48,ENE,61,7.0,12.0,37,0.00,,---,0.00,VWS V14.01,2013-04-23 04:11:00,
2013-04-23 00:16:00,40.9,16.6,30.47,ENE,71,4.0,12.0,37,0.00,,---,0.00,VWS V14.01,2013-04-23 04:16:00,
2013-04-23 00:21:00,40.8,16.6,30.47,East,81,5.0,12.0,37,0.00,,---,0.00,VWS V14.01,2013-04-23 04:21:00,
2013-04-23 00:26:00,40.6,16.4,30.47,ENE,60,9.0,12.0,37,0.00,,---,0.00,VWS V14.01,2013-04-23 04:26:00,
2013-04-23 00:30:00,41.5,17.2,30.48,NE,45,3.0,11.0,37,0.00,,---,0.00,VWS V14.01,2013-04-23 04:30:00,
2013-04-23 00:31:00,40.5,16.3,30.46,NE,44,2.0,12.0,37,0.00,,---,0.00,VWS V14.01,2013-04-23 04:31:00,
2013-04-23 00:36:00,40.3,16.1,30.46,NE,39,3.0,10.0,37,0.00,,---,0.00,VWS V14.01,2013-04-23 04:36:00,
2013-04-23 00:41:00,40.2,16.0,30.46,NNE,32,2.0,10.0,37,0.00,,---,0.00,VWS V14.01,2013-04-23 04:41:00,
2013-04-23 00:46:00,40.1,15.9,30.46,NNE,31,4.0,10.0,37,0.00,,---,0.00,VWS V14.01,2013-04-23 04:46:00,
2013-04-23 00:51:00,39.9,15.8,30.46,NNE,23,3.0,10.0,37,0.00,,---,0.00,VWS V14.01,2013-04-23 04:51:00,
2013-04-23 00:56:00,39.9,15.8,30.46,NE,44,1.0,10.0,37,0.00,,---,0.00,VWS V14.01,2013-04-23 04:56:00,
2013-04-23 01:00:00,40.9,16.6,30.48,NE,50,6.0,17.0,37,0.00,,---,0.00,VWS V14.01,2013-04-23 05:00:00,
2013-04-23 01:01:00,39.8,15.7,30.45,NE,45,4.0,4.0,37,0.00,,---,0.00,VWS V14.01,2013-04-23 05:01:00,
2013-04-23 01:06:00,39.6,15.5,30.45,NE,46,2.0,9.0,37,0.00,,---,0.00,VWS V14.01,2013-04-23 05:06:00,
2013-04-23 01:11:00,39.6,15.5,30.45,NE,34,4.0,9.0,37,0.00,,---,0.00,VWS V14.01,2013-04-23 05:11:00,
2013-04-23 01:16:00,39.6,15.5,30.45,NE,53,4.0,9.0,37,0.00,,---,0.00,VWS V14.01,2013-04-23 05:16:00,
2013-04-23 01:21:00,39.6,15.5,30.45,NE,42,2.0,9.0,37,0.00,,---,0.00,VWS V14.01,2013-04-23 05:21:00,
2013-04-23 01:26:00,39.6,15.5,30.45,ENE,70,6.0,9.0,37,0.00,,---,0.00,VWS V14.01,2013-04-23 05:26:00,
2013-04-23 01:30:00,40.5,16.3,30.46,NE,44,2.0,12.0,37,0.00,,---,0.00,VWS V14.01,2013-04-23 05:30:00,
2013-04-23 01:31:00,39.5,15.4,30.44,NE,41,3.0,3.0,37,0.00,,---,0.00,VWS V14.01,2013-04-23 05:31:00,
2013-04-23 01:36:00,39.5,15.4,30.44,NE,48,0.0,7.0,37,0.00,,---,0.00,VWS V14.01,2013-04-23 05:36:00,
2013-04-23 01:41:00,39.5,15.4,30.44,ENE,75,9.0,9.0,37,0.00,,---,0.00,VWS V14.01,2013-04-23 05:41:00,
2013-04-23 01:46:00,39.5,15.4,30.43,NE,34,3.0,9.0,37,0.00,,---,0.00,VWS V14.01,2013-04-23 05:46:00,
2013-04-23 01:51:00,39.6,15.5,30.43,NNE,21,4.0,9.0,37,0.00,,---,0.00,VWS V14.01,2013-04-23 05:51:00,
2013-04-23 01:56:00,39.6,15.5,30.43,NNE,15,3.0,9.0,37,0.00,,---,0.00,VWS V14.01,2013-04-23 05:56:00,
2013-04-23 02:00:00,39.8,15.7,30.45,NE,44,4.0,10.0,37,0.00,,---,0.00,VWS V14.01,2013-04-23 06:00:00,
2013-04-23 02:01:00,39.6,15.5,30.42,NE,49,1.0,2.0,37,0.00,,---,0.00,VWS V14.01,2013-04-23 06:01:00,
2013-04-23 02:06:00,39.6,15.5,30.42,NE,39,4.0,10.0,37,0.00,,---,0.00,VWS V14.01,2013-04-23 06:06:00,
2013-04-23 02:11:00,39.6,15.5,30.42,NNE,20,2.0,10.0,37,0.00,,---,0.00,VWS V14.01,2013-04-23 06:11:00,
2013-04-23 02:16:00,39.6,15.5,30.42,NE,53,4.0,10.0,37,0.00,,---,0.00,VWS V14.01,2013-04-23 06:16:00,
2013-04-23 02:21:00,39.8,15.7,30.42,NE,56,5.0,10.0,37,0.00,,---,0.00,VWS V14.01,2013-04-23 06:21:00,
2013-04-23 02:27:00,39.8,15.7,30.42,NE,34,1.0,10.0,37,0.00,,---,0.00,VWS V14.01,2013-04-23 06:27:00,
2013-04-23 02:30:00,39.5,15.4,30.44,NE,41,2.0,9.0,37,0.00,,---,0.00,VWS V14.01,2013-04-23 06:30:00,
2013-04-23 02:32:00,39.8,15.7,30.41,ENE,60,6.0,6.0,37,0.00,,---,0.00,VWS V14.01,2013-04-23 06:32:00,
2013-04-23 02:37:00,39.8,15.7,30.41,NE,41,2.0,6.0,37,0.00,,---,0.00,VWS V14.01,2013-04-23 06:37:00,
2013-04-23 02:42:00,39.9,15.8,30.41,North,1,4.0,8.0,37,0.00,,---,0.00,VWS V14.01,2013-04-23 06:42:00,
2013-04-23 02:47:00,39.9,15.8,30.40,NE,51,4.0,9.0,37,0.00,,---,0.00,VWS V14.01,2013-04-23 06:47:00,
2013-04-23 02:52:00,39.9,15.8,30.40,NE,45,2.0,9.0,37,0.00,,---,0.00,VWS V14.01,2013-04-23 06:52:00,
2013-04-23 02:57:00,39.9,15.8,30.40,NE,36,5.0,9.0,37,0.00,,---,0.00,VWS V14.01,2013-04-23 06:57:00,
2013-04-23 03:00:00,39.6,15.5,30.42,NE,49,2.0,9.0,37,0.00,,---,0.00,VWS V14.01,2013-04-23 07:00:00,
2013-04-23 03:02:00,39.9,15.8,30.39,NE,45,5.0,7.0,37,0.00,,---,0.00,VWS V14.01,2013-04-23 07:02:00,
2013-04-23 03:07:00,40.1,15.9,30.39,North,6,7.0,7.0,37,0.00,,---,0.00,VWS V14.01,2013-04-23 07:07:00,
2013-04-23 03:12:00,39.9,15.8,30.39,NE,46,3.0,10.0,37,0.00,,---,0.00,VWS V14.01,2013-04-23 07:12:00,
2013-04-23 03:17:00,40.1,15.9,30.39,NE,48,11.0,11.0,37,0.00,,---,0.00,VWS V14.01,2013-04-23 07:17:00,
2013-04-23 03:22:00,40.1,15.9,30.39,NE,36,2.0,11.0,37,0.00,,---,0.00,VWS V14.01,2013-04-23 07:22:00,
2013-04-23 03:27:00,40.1,15.9,30.39,NNE,26,4.0,11.0,37,0.00,,---,0.00,VWS V14.01,2013-04-23 07:27:00,
2013-04-23 03:30:00,39.8,15.7,30.41,NNE,27,4.0,10.0,37,0.00,,---,0.00,VWS V14.01,2013-04-23 07:30:00,
2013-04-23 03:32:00,40.1,15.9,30.39,NNE,20,3.0,5.0,37,0.00,,---,0.00,VWS V14.01,2013-04-23 07:32:00,
2013-04-23 03:37:00,39.9,15.8,30.39,NNE,25,7.0,10.0,37,0.00,,---,0.00,VWS V14.01,2013-04-23 07:37:00,
2013-04-23 03:42:00,39.9,15.8,30.39,NNE,22,4.0,10.0,37,0.00,,---,0.00,VWS V14.01,2013-04-23 07:42:00,
2013-04-23 03:47:00,40.1,15.9,30.39,NE,55,0.0,10.0,37,0.00,,---,0.00,VWS V14.01,2013-04-23 07:47:00,
2013-04-23 03:52:00,40.1,15.9,30.39,ENE,63,10.0,10.0,37,0.00,,---,0.00,VWS V14.01,2013-04-23 07:52:00,
2013-04-23 03:57:00,40.1,15.9,30.39,NE,45,5.0,10.0,37,0.00,,---,0.00,VWS V14.01,2013-04-23 07:57:00,
2013-04-23 04:00:00,39.9,15.8,30.39,NE,51,7.0,9.0,37,0.00,,---,0.00,VWS V14.01,2013-04-23 08:00:00,
2013-04-23 04:02:00,40.1,15.9,30.38,ENE,68,3.0,5.0,37,0.00,,---,0.00,VWS V14.01,2013-04-23 08:02:00,
2013-04-23 04:07:00,40.1,15.9,30.38,NE,36,6.0,7.0,37,0.00,,---,0.00,VWS V14.01,2013-04-23 08:07:00,
2013-04-23 04:12:00,40.1,15.9,30.38,ENE,60,3.0,14.0,37,0.00,,---,0.00,VWS V14.01,2013-04-23 08:12:00,
2013-04-23 04:17:00,40.1,15.9,30.37,ENE,62,8.0,14.0,37,0.00,,---,0.00,VWS V14.01,2013-04-23 08:17:00,
2013-04-23 04:22:00,40.1,15.9,30.37,NE,41,5.0,14.0,37,0.00,,---,0.00,VWS V14.01,2013-04-23 08:22:00,
2013-04-23 04:27:00,40.1,15.9,30.37,ENE,59,2.0,14.0,37,0.00,,---,0.00,VWS V14.01,2013-04-23 08:27:00,
2013-04-23 04:30:00,40.1,15.9,30.39,NE,40,1.0,11.0,37,0.00,,---,0.00,VWS V14.01,2013-04-23 08:30:00,
2013-04-23 04:32:00,40.1,15.9,30.37,NNE,32,4.0,6.0,37,0.00,,---,0.00,VWS V14.01,2013-04-23 08:32:00,
2013-04-23 04:37:00,40.1,15.9,30.37,NE,48,3.0,11.0,37,0.00,,---,0.00,VWS V14.01,2013-04-23 08:37:00,
2013-04-23 04:42:00,40.1,15.9,30.37,ENE,61,5.0,11.0,37,0.00,,---,0.00,VWS V14.01,2013-04-23 08:42:00,
2013-04-23 04:47:00,40.1,15.9,30.37,North,0,6.0,11.0,37,0.00,,---,0.00,VWS V14.01,2013-04-23 08:47:00,
2013-04-23 04:52:00,40.1,15.9,30.37,NNE,32,3.0,11.0,37,0.00,,---,0.00,VWS V14.01,2013-04-23 08:52:00,
2013-04-23 04:57:00,40.1,15.9,30.37,ENE,58,4.0,11.0,37,0.00,,---,0.00,VWS V14.01,2013-04-23 08:57:00,
2013-04-23 05:00:00,40.1,15.9,30.38,NE,40,5.0,10.0,37,0.00,,---,0.00,VWS V14.01,2013-04-23 09:00:00,
2013-04-23 05:02:00,40.1,15.9,30.36,NE,55,5.0,8.0,37,0.00,,---,0.00,VWS V14.01,2013-04-23 09:02:00,
2013-04-23 05:07:00,40.1,15.9,30.36,NE,53,5.0,10.0,37,0.00,,---,0.00,VWS V14.01,2013-04-23 09:07:00,
2013-04-23 05:12:00,40.2,16.0,30.36,NNE,28,5.0,10.0,37,0.00,,---,0.00,VWS V14.01,2013-04-23 09:12:00,
2013-04-23 05:17:00,40.2,16.0,30.35,NNE,27,5.0,12.0,37,0.00,,---,0.00,VWS V14.01,2013-04-23 09:17:00,
2013-04-23 05:22:00,40.2,16.6,30.35,ENE,62,6.0,12.0,38,0.00,,---,0.00,VWS V14.01,2013-04-23 09:22:00,
2013-04-23 05:27:00,40.2,16.6,30.35,North,0,6.0,14.0,38,0.00,,---,0.00,VWS V14.01,2013-04-23 09:27:00,
2013-04-23 05:30:00,40.1,15.9,30.37,ENE,68,4.0,14.0,37,0.00,,---,0.00,VWS V14.01,2013-04-23 09:30:00,
2013-04-23 05:32:00,40.2,16.6,30.36,NNE,33,4.0,6.0,38,0.00,,---,0.00,VWS V14.01,2013-04-23 09:32:00,
2013-04-23 05:37:00,40.2,16.6,30.36,NNE,30,2.0,10.0,38,0.00,,---,0.00,VWS V14.01,2013-04-23 09:37:00,
2013-04-23 05:42:00,40.2,16.6,30.36,NE,41,2.0,10.0,38,0.00,,---,0.00,VWS V14.01,2013-04-23 09:42:00,
2013-04-23 05:47:00,40.2,16.6,30.35,NNE,29,5.0,11.0,38,0.00,,---,0.00,VWS V14.01,2013-04-23 09:47:00,
2013-04-23 05:52:00,40.2,16.6,30.35,ENE,63,5.0,11.0,38,0.00,,---,0.00,VWS V14.01,2013-04-23 09:52:00,
2013-04-23 05:57:00,40.2,16.6,30.35,NNE,18,4.0,12.0,38,0.00,,---,0.00,VWS V14.01,2013-04-23 09:57:00,
2013-04-23 06:00:00,40.1,15.9,30.36,NE,39,7.0,11.0,37,0.00,,---,0.00,VWS V14.01,2013-04-23 10:00:00,
2013-04-23 06:02:00,40.2,16.6,30.35,ENE,62,3.0,5.0,38,0.00,,---,0.00,VWS V14.01,2013-04-23 10:02:00,
2013-04-23 06:07:00,40.3,16.7,30.35,NE,38,7.0,10.0,38,0.00,,---,0.00,VWS V14.01,2013-04-23 10:07:00,
2013-04-23 06:12:00,40.3,16.7,30.35,NNE,13,4.0,10.0,38,0.00,,---,0.00,VWS V14.01,2013-04-23 10:12:00,
2013-04-23 06:17:00,40.3,16.7,30.35,NE,38,7.0,11.0,38,0.00,,---,0.00,VWS V14.01,2013-04-23 10:17:00,
2013-04-23 06:22:00,40.3,16.7,30.35,NE,41,3.0,12.0,38,0.00,,---,0.00,VWS V14.01,2013-04-23 10:22:00,
2013-04-23 06:27:00,40.3,16.7,30.35,NNE,15,4.0,12.0,38,0.00,,---,0.00,VWS V14.01,2013-04-23 10:27:00,
2013-04-23 06:30:00,40.2,16.6,30.36,ENE,70,5.0,14.0,38,0.00,,---,0.00,VWS V14.01,2013-04-23 10:30:00,
2013-04-23 06:32:00,40.3,16.7,30.35,NE,42,4.0,7.0,38,0.00,,---,0.00,VWS V14.01,2013-04-23 10:32:00,
2013-04-23 06:37:00,40.3,16.7,30.35,ENE,64,5.0,9.0,38,0.00,,---,0.00,VWS V14.01,2013-04-23 10:37:00,
2013-04-23 06:42:00,40.3,16.7,30.35,NNE,14,2.0,9.0,38,0.00,,---,0.00,VWS V14.01,2013-04-23 10:42:00,
2013-04-23 06:47:00,40.2,16.6,30.34,NNE,14,6.0,9.0,38,0.00,,---,0.00,VWS V14.01,2013-04-23 10:47:00,
2013-04-23 06:52:00,40.1,16.5,30.34,NE,52,5.0,11.0,38,0.00,,---,0.00,VWS V14.01,2013-04-23 10:52:00,
2013-04-23 06:57:00,40.1,16.5,30.34,ENE,66,5.0,13.0,38,0.00,,---,0.00,VWS V14.01,2013-04-23 10:57:00,
2013-04-23 07:00:00,40.2,16.6,30.35,ENE,64,4.0,12.0,38,0.00,,---,0.00,VWS V14.01,2013-04-23 11:00:00,
2013-04-23 07:02:00,40.1,16.5,30.34,NE,49,11.0,12.0,38,0.00,,---,0.00,VWS V14.01,2013-04-23 11:02:00,
2013-04-23 07:07:00,40.1,16.5,30.34,North,7,6.0,12.0,38,0.00,,---,0.00,VWS V14.01,2013-04-23 11:07:00,
2013-04-23 07:12:00,40.1,16.5,30.34,NNE,27,6.0,12.0,38,0.00,,---,0.00,VWS V14.01,2013-04-23 11:12:00,
2013-04-23 07:17:00,40.2,16.6,30.34,NE,46,4.0,12.0,38,0.00,,---,0.00,VWS V14.01,2013-04-23 11:17:00,
2013-04-23 07:22:00,40.2,16.6,30.34,NNE,15,11.0,14.0,38,0.00,,---,0.00,VWS V14.01,2013-04-23 11:22:00,
2013-04-23 07:27:00,40.1,16.5,30.34,NE,37,5.0,14.0,38,0.00,,---,0.00,VWS V14.01,2013-04-23 11:27:00,
2013-04-23 07:30:00,40.3,16.7,30.35,ENE,58,6.0,13.0,38,0.00,,---,0.00,VWS V14.01,2013-04-23 11:30:00,
2013-04-23 07:33:00,40.1,16.5,30.34,NNE,25,6.0,7.0,38,0.00,,---,0.00,VWS V14.01,2013-04-23 11:33:00,
2013-04-23 07:37:00,40.1,17.1,30.34,North,1,5.0,12.0,39,0.00,,---,0.00,VWS V14.01,2013-04-23 11:37:00,
2013-04-23 07:43:00,40.1,17.1,30.34,NE,39,4.0,12.0,39,0.00,,---,0.00,VWS V14.01,2013-04-23 11:43:00,
2013-04-23 07:48:00,40.1,17.1,30.34,NNE,23,4.0,12.0,39,0.00,,---,0.00,VWS V14.01,2013-04-23 11:48:00,
2013-04-23 07:53:00,40.1,17.1,30.34,North,8,3.0,12.0,39,0.00,,---,0.00,VWS V14.01,2013-04-23 11:53:00,
2013-04-23 07:58:00,40.1,17.1,30.34,NE,36,4.0,12.0,39,0.00,,---,0.00,VWS V14.01,2013-04-23 11:58:00,
2013-04-23 08:00:00,40.1,16.5,30.34,NE,53,4.0,13.0,38,0.00,,---,0.00,VWS V14.01,2013-04-23 12:00:00,
2013-04-23 08:03:00,40.1,17.1,30.34,NE,35,4.0,9.0,39,0.00,,---,0.00,VWS V14.01,2013-04-23 12:03:00,
2013-04-23 08:08:00,40.2,17.2,30.34,NE,45,3.0,11.0,39,0.00,,---,0.00,VWS V14.01,2013-04-23 12:08:00,
2013-04-23 08:13:00,40.3,17.3,30.34,North,8,7.0,11.0,39,0.00,,---,0.00,VWS V14.01,2013-04-23 12:13:00,
2013-04-23 08:18:00,40.5,17.5,30.34,NE,37,2.0,12.0,39,0.00,,---,0.00,VWS V14.01,2013-04-23 12:18:00,
2013-04-23 08:23:00,40.6,17.6,30.34,NE,41,7.0,12.0,39,0.00,,---,0.00,VWS V14.01,2013-04-23 12:23:00,
2013-04-23 08:28:00,40.8,17.8,30.34,North,8,5.0,12.0,39,0.00,,---,0.00,VWS V14.01,2013-04-23 12:28:00,
2013-04-23 08:30:00,40.1,16.5,30.34,NE,42,6.0,14.0,38,0.00,,---,0.00,VWS V14.01,2013-04-23 12:30:00,
2013-04-23 08:33:00,40.9,17.9,30.33,NE,52,5.0,7.0,39,0.00,,---,0.00,VWS V14.01,2013-04-23 12:33:00,
2013-04-23 08:38:00,41.1,17.4,30.33,NNE,21,5.0,12.0,38,0.00,,---,0.00,VWS V14.01,2013-04-23 12:38:00,
2013-04-23 08:43:00,41.3,17.6,30.33,NNE,15,6.0,12.0,38,0.00,,---,0.00,VWS V14.01,2013-04-23 12:43:00,
2013-04-23 08:48:00,41.5,17.8,30.33,NNE,33,6.0,12.0,38,0.00,,---,0.00,VWS V14.01,2013-04-23 12:48:00,
2013-04-23 08:53:00,41.5,17.8,30.33,NE,35,11.0,12.0,38,0.00,,---,0.00,VWS V14.01,2013-04-23 12:53:00,
2013-04-23 08:58:00,41.6,17.9,30.33,NE,37,3.0,12.0,38,0.00,,---,0.00,VWS V14.01,2013-04-23 12:58:00,
2013-04-23 09:00:00,40.1,17.1,30.34,NNE,26,7.0,12.0,39,0.00,,---,0.00,VWS V14.01,2013-04-23 13:00:00,
2013-04-23 09:03:00,41.8,18.1,30.33,NE,39,6.0,9.0,38,0.00,,---,0.00,VWS V14.01,2013-04-23 13:03:00,
2013-04-23 09:08:00,41.9,18.2,30.33,NE,41,6.0,9.0,38,0.00,,---,0.00,VWS V14.01,2013-04-23 13:08:00,
2013-04-23 09:13:00,41.9,18.2,30.33,NNE,23,4.0,11.0,38,0.00,,---,0.00,VWS V14.01,2013-04-23 13:13:00,
2013-04-23 09:18:00,41.8,18.1,30.33,North,6,5.0,11.0,38,0.00,,---,0.00,VWS V14.01,2013-04-23 13:18:00,
2013-04-23 09:23:00,41.8,18.1,30.33,NE,53,4.0,11.0,38,0.00,,---,0.00,VWS V14.01,2013-04-23 13:23:00,
2013-04-23 09:28:00,41.5,18.4,30.33,NNE,14,4.0,13.0,39,0.00,,---,0.00,VWS V14.01,2013-04-23 13:28:00,
2013-04-23 09:30:00,40.9,17.9,30.33,NNE,23,5.0,12.0,39,0.00,,---,0.00,VWS V14.01,2013-04-23 13:30:00,
2013-04-23 09:33:00,41.3,18.2,30.33,NNE,32,4.0,11.0,39,0.00,,---,0.00,VWS V14.01,2013-04-23 13:33:00,
2013-04-23 09:38:00,41.3,18.2,30.33,NE,37,2.0,11.0,39,0.00,,---,0.00,VWS V14.01,2013-04-23 13:38:00,
2013-04-23 09:43:00,41.2,18.1,30.33,NE,35,6.0,14.0,39,0.00,,---,0.00,VWS V14.01,2013-04-23 13:43:00,
2013-04-23 09:48:00,41.2,18.1,30.33,NNE,32,3.0,14.0,39,0.00,,---,0.00,VWS V14.01,2013-04-23 13:48:00,
2013-04-23 09:53:00,41.1,18.0,30.33,NNE,20,9.0,14.0,39,0.00,,---,0.00,VWS V14.01,2013-04-23 13:53:00,
2013-04-23 09:58:00,41.1,18.0,30.33,North,0,3.0,14.0,39,0.00,,---,0.00,VWS V14.01,2013-04-23 13:58:00,
2013-04-23 10:00:00,41.8,18.1,30.33,NNE,27,5.0,12.0,38,0.00,,---,0.00,VWS V14.01,2013-04-23 14:00:00,
2013-04-23 10:03:00,41.2,18.1,30.33,NNE,21,5.0,11.0,39,0.00,,---,0.00,VWS V14.01,2013-04-23 14:03:00,
2013-04-23 10:08:00,41.2,18.1,30.33,NE,39,4.0,11.0,39,0.00,,---,0.00,VWS V14.01,2013-04-23 14:08:00,
2013-04-23 10:13:00,41.3,18.2,30.33,NE,51,3.0,11.0,39,0.00,,---,0.00,VWS V14.01,2013-04-23 14:13:00,
2013-04-23 10:18:00,41.5,18.4,30.32,NE,39,6.0,11.0,39,0.00,,---,0.00,VWS V14.01,2013-04-23 14:18:00,
2013-04-23 10:23:00,41.5,18.4,30.32,North,11,6.0,13.0,39,0.00,,---,0.00,VWS V14.01,2013-04-23 14:23:00,
2013-04-23 10:28:00,41.6,18.5,30.32,NNE,13,6.0,13.0,39,0.00,,---,0.00,VWS V14.01,2013-04-23 14:28:00,
2013-04-23 10:30:00,41.5,18.4,30.33,NNE,17,10.0,13.0,39,0.00,,---,0.00,VWS V14.01,2013-04-23 14:30:00,
2013-04-23 10:33:00,41.8,18.7,30.31,North,7,7.0,10.0,39,0.00,,---,0.00,VWS V14.01,2013-04-23 14:33:00,
2013-04-23 10:38:00,41.9,18.8,30.31,ENE,63,10.0,12.0,39,0.00,,---,0.00,VWS V14.01,2013-04-23 14:38:00,
2013-04-23 10:43:00,42.1,19.0,30.31,NNE,31,6.0,12.0,39,0.00,,---,0.00,VWS V14.01,2013-04-23 14:43:00,
2013-04-23 10:48:00,42.2,19.0,30.31,NNE,24,5.0,12.0,39,0.00,,---,0.00,VWS V14.01,2013-04-23 14:48:00,
2013-04-23 10:53:00,42.3,19.1,30.31,NNE,19,5.0,12.0,39,0.00,,---,0.00,VWS V14.01,2013-04-23 14:53:00,
2013-04-23 10:58:00,42.5,19.3,30.31,NE,46,10.0,12.0,39,0.00,,---,0.00,VWS V14.01,2013-04-23 14:58:00,
2013-04-23 11:00:00,41.2,18.1,30.33,NNE,30,7.0,14.0,39,0.00,,---,0.00,VWS V14.01,2013-04-23 15:00:00,
2013-04-23 11:03:00,42.6,19.4,30.31,ENE,59,3.0,10.0,39,0.00,,---,0.00,VWS V14.01,2013-04-23 15:03:00,
2013-04-23 11:08:00,42.6,19.4,30.31,ENE,62,3.0,13.0,39,0.00,,---,0.00,VWS V14.01,2013-04-23 15:08:00,
2013-04-23 11:13:00,42.8,19.6,30.31,NE,39,6.0,13.0,39,0.00,,---,0.00,VWS V14.01,2013-04-23 15:13:00,
2013-04-23 11:18:00,42.8,19.6,30.30,NE,41,4.0,13.0,39,0.00,,---,0.00,VWS V14.01,2013-04-23 15:18:00,
2013-04-23 11:23:00,42.9,19.7,30.30,NE,37,6.0,13.0,39,0.00,,---,0.00,VWS V14.01,2013-04-23 15:23:00,
2013-04-23 11:28:00,43.1,19.8,30.30,NNE,32,11.0,13.0,39,0.00,,---,0.00,VWS V14.01,2013-04-23 15:28:00,
2013-04-23 11:30:00,41.6,18.5,30.31,NNE,18,5.0,13.0,39,0.00,,---,0.00,VWS V14.01,2013-04-23 15:30:00,
2013-04-23 11:33:00,43.2,19.9,30.29,NE,52,3.0,10.0,39,0.00,,---,0.00,VWS V14.01,2013-04-23 15:33:00,
2013-04-23 11:38:00,43.5,20.2,30.29,NE,44,3.0,10.0,39,0.00,,---,0.00,VWS V14.01,2013-04-23 15:38:00,
2013-04-23 11:43:00,43.6,20.3,30.29,ENE,63,2.0,12.0,39,0.00,,---,0.00,VWS V14.01,2013-04-23 15:43:00,
2013-04-23 11:48:00,43.8,20.5,30.29,NE,46,11.0,12.0,39,0.00,,---,0.00,VWS V14.01,2013-04-23 15:48:00,
2013-04-23 11:53:00,43.9,20.6,30.29,North,11,6.0,12.0,39,0.00,,---,0.00,VWS V14.01,2013-04-23 15:53:00,
2013-04-23 11:58:00,44.1,20.7,30.29,NE,49,5.0,12.0,39,0.00,,---,0.00,VWS V14.01,2013-04-23 15:58:00,
2013-04-23 12:00:00,42.6,19.4,30.31,North,7,9.0,13.0,39,0.00,,---,0.00,VWS V14.01,2013-04-23 16:00:00,
2013-04-23 12:03:00,44.1,20.7,30.28,NNE,16,4.0,15.0,39,0.00,,---,0.00,VWS V14.01,2013-04-23 16:03:00,
2013-04-23 12:08:00,44.3,20.9,30.28,NNE,29,5.0,15.0,39,0.00,,---,0.00,VWS V14.01,2013-04-23 16:08:00,
2013-04-23 12:13:00,44.3,20.3,30.28,NNE,31,10.0,15.0,38,0.00,,---,0.00,VWS V14.01,2013-04-23 16:13:00,
2013-04-23 12:18:00,44.3,20.3,30.27,NE,41,9.0,15.0,38,0.00,,---,0.00,VWS V14.01,2013-04-23 16:18:00,
2013-04-23 12:23:00,44.5,20.5,30.27,NE,56,9.0,15.0,38,0.00,,---,0.00,VWS V14.01,2013-04-23 16:23:00,
2013-04-23 12:28:00,44.5,20.5,30.27,NE,38,6.0,15.0,38,0.00,,---,0.00,VWS V14.01,2013-04-23 16:28:00,
2013-04-23 12:30:00,43.1,19.8,30.29,NNE,30,5.0,13.0,39,0.00,,---,0.00,VWS V14.01,2013-04-23 16:30:00,
2013-04-23 12:33:00,44.8,20.8,30.26,NE,48,7.0,11.0,38,0.00,,---,0.00,VWS V14.01,2013-04-23 16:33:00,
2013-04-23 12:38:00,44.9,20.9,30.26,NE,46,3.0,11.0,38,0.00,,---,0.00,VWS V14.01,2013-04-23 16:38:00,
2013-04-23 12:43:00,45.1,21.0,30.26,NNE,16,6.0,12.0,38,0.00,,---,0.00,VWS V14.01,2013-04-23 16:43:00,
2013-04-23 12:48:00,45.2,21.1,30.25,NE,40,3.0,14.0,38,0.00,,---,0.00,VWS V14.01,2013-04-23 16:48:00,
2013-04-23 12:53:00,45.2,21.1,30.25,NE,45,5.0,14.0,38,0.00,,---,0.00,VWS V14.01,2013-04-23 16:53:00,
2013-04-23 12:58:00,45.7,21.6,30.25,ENE,63,3.0,14.0,38,0.00,,---,0.00,VWS V14.01,2013-04-23 16:58:00,
2013-04-23 13:00:00,44.1,20.7,30.28,North,2,15.0,15.0,39,0.00,,---,0.00,VWS V14.01,2013-04-23 17:00:00,
2013-04-23 13:03:00,45.7,21.6,30.24,NE,55,7.0,16.0,38,0.00,,---,0.00,VWS V14.01,2013-04-23 17:03:00,
2013-04-23 13:08:00,45.8,21.6,30.24,NNE,32,5.0,16.0,38,0.00,,---,0.00,VWS V14.01,2013-04-23 17:08:00,
2013-04-23 13:13:00,46.0,21.8,30.24,NNE,12,10.0,16.0,38,0.00,,---,0.00,VWS V14.01,2013-04-23 17:13:00,
2013-04-23 13:18:00,46.0,21.8,30.23,North,3,14.0,16.0,38,0.00,,---,0.00,VWS V14.01,2013-04-23 17:18:00,
2013-04-23 13:23:00,46.0,21.8,30.23,NE,36,6.0,16.0,38,0.00,,---,0.00,VWS V14.01,2013-04-23 17:23:00,
2013-04-23 13:28:00,46.2,22.0,30.23,NE,40,3.0,16.0,38,0.00,,---,0.00,VWS V14.01,2013-04-23 17:28:00,
2013-04-23 13:30:00,44.6,20.6,30.26,North,0,10.0,15.0,38,0.00,,---,0.00,VWS V14.01,2013-04-23 17:30:00,
2013-04-23 13:33:00,46.4,22.2,30.22,NNE,18,8.0,10.0,38,0.00,,---,0.00,VWS V14.01,2013-04-23 17:33:00,
2013-04-23 13:38:00,46.4,22.2,30.22,NE,41,11.0,14.0,38,0.00,,---,0.00,VWS V14.01,2013-04-23 17:38:00,
2013-04-23 13:43:00,46.4,22.2,30.22,NE,39,4.0,14.0,38,0.00,,---,0.00,VWS V14.01,2013-04-23 17:43:00,
2013-04-23 13:48:00,46.2,22.0,30.22,North,0,7.0,15.0,38,0.00,,---,0.00,VWS V14.01,2013-04-23 17:48:00,
2013-04-23 13:53:00,46.2,22.0,30.22,NE,41,4.0,15.0,38,0.00,,---,0.00,VWS V14.01,2013-04-23 17:53:00,
2013-04-23 13:58:00,46.4,22.2,30.22,North,2,6.0,15.0,38,0.00,,---,0.00,VWS V14.01,2013-04-23 17:58:00,
2013-04-23 14:00:00,45.8,21.6,30.24,NNE,13,11.0,14.0,38,0.00,,---,0.00,VWS V14.01,2013-04-23 18:00:00,
2013-04-23 14:03:00,46.4,22.2,30.21,ENE,66,6.0,13.0,38,0.00,,---,0.00,VWS V14.01,2013-04-23 18:03:00,
2013-04-23 14:08:00,46.5,22.3,30.21,NE,34,3.0,13.0,38,0.00,,---,0.00,VWS V14.01,2013-04-23 18:08:00,
2013-04-23 14:13:00,46.5,22.3,30.21,NE,46,9.0,15.0,38,0.00,,---,0.00,VWS V14.01,2013-04-23 18:13:00,
2013-04-23 14:18:00,46.2,22.0,30.20,NNE,25,6.0,15.0,38,0.00,,---,0.00,VWS V14.01,2013-04-23 18:18:00,
2013-04-23 14:23:00,46.1,21.9,30.20,North,0,9.0,15.0,38,0.00,,---,0.00,VWS V14.01,2013-04-23 18:23:00,
2013-04-23 14:28:00,46.1,21.9,30.20,NNE,25,6.0,15.0,38,0.00,,---,0.00,VWS V14.01,2013-04-23 18:28:00,
2013-04-23 14:30:00,46.2,22.0,30.22,NE,53,3.0,16.0,38,0.00,,---,0.00,VWS V14.01,2013-04-23 18:30:00,
2013-04-23 14:33:00,46.1,21.9,30.20,NE,44,8.0,8.0,38,0.00,,---,0.00,VWS V14.01,2013-04-23 18:33:00,
2013-04-23 14:38:00,46.1,21.9,30.20,NNE,22,4.0,16.0,38,0.00,,---,0.00,VWS V14.01,2013-04-23 18:38:00,
2013-04-23 14:43:00,46.1,21.9,30.20,NNE,26,6.0,16.0,38,0.00,,---,0.00,VWS V14.01,2013-04-23 18:43:00,
2013-04-23 14:48:00,46.1,21.9,30.19,ENE,70,7.0,16.0,38,0.00,,---,0.00,VWS V14.01,2013-04-23 18:48:00,
2013-04-23 14:53:00,46.1,21.9,30.19,NE,42,8.0,16.0,38,0.00,,---,0.00,VWS V14.01,2013-04-23 18:53:00,
2013-04-23 14:58:00,46.1,21.9,30.19,North,11,5.0,16.0,38,0.00,,---,0.00,VWS V14.01,2013-04-23 18:58:00,
2013-04-23 15:00:00,46.5,22.3,30.21,ENE,65,9.0,17.0,38,0.00,,---,0.00,VWS V14.01,2013-04-23 19:00:00,
2013-04-23 15:03:00,46.1,21.9,30.18,NE,37,9.0,11.0,38,0.00,,---,0.00,VWS V14.01,2013-04-23 19:03:00,
2013-04-23 15:08:00,46.1,21.9,30.18,ENE,62,3.0,12.0,38,0.00,,---,0.00,VWS V14.01,2013-04-23 19:08:00,
2013-04-23 15:13:00,46.2,22.0,30.18,North,356,5.0,12.0,38,0.00,,---,0.00,VWS V14.01,2013-04-23 19:13:00,
2013-04-23 15:18:00,46.2,22.0,30.18,NNE,29,7.0,14.0,38,0.00,,---,0.00,VWS V14.01,2013-04-23 19:18:00,
2013-04-23 15:23:00,46.0,21.8,30.18,North,8,7.0,14.0,38,0.00,,---,0.00,VWS V14.01,2013-04-23 19:23:00,
2013-04-23 15:28:00,45.8,21.6,30.18,NE,39,7.0,15.0,38,0.00,,---,0.00,VWS V14.01,2013-04-23 19:28:00,
2013-04-23 15:30:00,46.1,21.9,30.20,NNE,32,4.0,15.0,38,0.00,,---,0.00,VWS V14.01,2013-04-23 19:30:00,
2013-04-23 15:33:00,45.7,21.6,30.17,NNE,28,6.0,11.0,38,0.00,,---,0.00,VWS V14.01,2013-04-23 19:33:00,
2013-04-23 15:38:00,45.7,21.6,30.17,ENE,60,12.0,14.0,38,0.00,,---,0.00,VWS V14.01,2013-04-23 19:38:00,
2013-04-23 15:43:00,45.7,21.6,30.17,NE,38,3.0,14.0,38,0.00,,---,0.00,VWS V14.01,2013-04-23 19:43:00,
2013-04-23 15:48:00,45.7,21.6,30.16,NE,37,5.0,16.0,38,0.00,,---,0.00,VWS V14.01,2013-04-23 19:48:00,
2013-04-23 15:53:00,45.7,21.6,30.16,North,11,9.0,16.0,38,0.00,,---,0.00,VWS V14.01,2013-04-23 19:53:00,
2013-04-23 15:58:00,45.7,21.6,30.16,NNE,17,7.0,16.0,38,0.00,,---,0.00,VWS V14.01,2013-04-23 19:58:00,
2013-04-23 16:00:00,46.1,21.9,30.18,NE,53,7.0,16.0,38,0.00,,---,0.00,VWS V14.01,2013-04-23 20:00:00,
2013-04-23 16:03:00,45.7,21.6,30.16,NNE,25,10.0,15.0,38,0.00,,---,0.00,VWS V14.01,2013-04-23 20:03:00,
2013-04-23 16:08:00,45.8,21.6,30.16,NNE,27,6.0,15.0,38,0.00,,---,0.00,VWS V14.01,2013-04-23 20:08:00,
2013-04-23 16:13:00,45.8,21.6,30.16,North,9,6.0,17.0,38,0.00,,---,0.00,VWS V14.01,2013-04-23 20:13:00,
2013-04-23 16:18:00,46.0,21.8,30.16,North,11,7.0,17.0,38,0.00,,---,0.00,VWS V14.01,2013-04-23 20:18:00,
2013-04-23 16:23:00,45.8,21.6,30.16,North,11,9.0,17.0,38,0.00,,---,0.00,VWS V14.01,2013-04-23 20:23:00,
2013-04-23 16:28:00,46.0,21.8,30.16,East,86,7.0,17.0,38,0.00,,---,0.00,VWS V14.01,2013-04-23 20:28:00,
2013-04-23 16:30:00,45.7,21.6,30.17,NNE,26,9.0,15.0,38,0.00,,---,0.00,VWS V14.01,2013-04-23 20:30:00,
2013-04-23 16:33:00,46.1,21.9,30.15,NNE,16,6.0,16.0,38,0.00,,---,0.00,VWS V14.01,2013-04-23 20:33:00,
2013-04-23 16:38:00,46.2,22.0,30.15,NE,46,4.0,16.0,38,0.00,,---,0.00,VWS V14.01,2013-04-23 20:38:00,
2013-04-23 16:43:00,46.4,22.2,30.15,NNE,32,10.0,16.0,38,0.00,,---,0.00,VWS V14.01,2013-04-23 20:43:00,
2013-04-23 16:49:00,46.4,22.2,30.14,North,359,3.0,16.0,38,0.00,,---,0.00,VWS V14.01,2013-04-23 20:49:00,
2013-04-23 16:54:00,46.5,22.3,30.14,NE,34,9.0,16.0,38,0.00,,---,0.00,VWS V14.01,2013-04-23 20:54:00,
2013-04-23 16:59:00,46.4,22.2,30.14,North,0,11.0,16.0,38,0.00,,---,0.00,VWS V14.01,2013-04-23 20:59:00,
2013-04-23 17:00:00,45.7,21.6,30.16,North,6,7.0,16.0,38,0.00,,---,0.00,VWS V14.01,2013-04-23 21:00:00,
2013-04-23 17:04:00,46.2,22.0,30.14,NNE,31,6.0,14.0,38,0.00,,---,0.00,VWS V14.01,2013-04-23 21:04:00,
2013-04-23 17:09:00,46.4,22.2,30.14,NNE,15,9.0,14.0,38,0.00,,---,0.00,VWS V14.01,2013-04-23 21:09:00,
2013-04-23 17:14:00,46.4,22.2,30.14,North,358,11.0,14.0,38,0.00,,---,0.00,VWS V14.01,2013-04-23 21:14:00,
2013-04-23 17:19:00,46.2,22.0,30.14,NNW,347,5.0,14.0,38,0.00,,---,0.00,VWS V14.01,2013-04-23 21:19:00,
2013-04-23 17:24:00,46.2,22.0,30.14,North,8,13.0,17.0,38,0.00,,---,0.00,VWS V14.01,2013-04-23 21:24:00,
2013-04-23 17:29:00,46.1,21.9,30.14,North,0,4.0,17.0,38,0.00,,---,0.00,VWS V14.01,2013-04-23 21:29:00,
2013-04-23 17:30:00,46.1,21.9,30.15,North,4,6.0,17.0,38,0.00,,---,0.00,VWS V14.01,2013-04-23 21:30:00,
2013-04-23 17:34:00,46.0,21.8,30.14,NE,55,11.0,13.0,38,0.00,,---,0.00,VWS V14.01,2013-04-23 21:34:00,
2013-04-23 17:39:00,45.7,21.6,30.14,North,6,5.0,18.0,38,0.00,,---,0.00,VWS V14.01,2013-04-23 21:39:00,
2013-04-23 17:44:00,45.5,21.4,30.14,NE,44,10.0,18.0,38,0.00,,---,0.00,VWS V14.01,2013-04-23 21:44:00,
2013-04-23 17:49:00,45.4,21.3,30.13,NE,41,5.0,20.0,38,0.00,,---,0.00,VWS V14.01,2013-04-23 21:49:00,
2013-04-23 17:54:00,45.4,21.3,30.13,NNE,18,7.0,20.0,38,0.00,,---,0.00,VWS V14.01,2013-04-23 21:54:00,
2013-04-23 17:59:00,45.2,21.1,30.13,NNE,25,5.0,20.0,38,0.00,,---,0.00,VWS V14.01,2013-04-23 21:59:00,
2013-04-23 18:00:00,46.2,22.0,30.14,NE,40,3.0,16.0,38,0.00,,---,0.00,VWS V14.01,2013-04-23 22:00:00,
2013-04-23 18:04:00,45.2,21.1,30.12,North,359,8.0,14.0,38,0.00,,---,0.00,VWS V14.01,2013-04-23 22:04:00,
2013-04-23 18:09:00,45.2,21.1,30.12,NNE,21,6.0,14.0,38,0.00,,---,0.00,VWS V14.01,2013-04-23 22:09:00,
2013-04-23 18:14:00,45.1,21.0,30.12,North,356,8.0,17.0,38,0.00,,---,0.00,VWS V14.01,2013-04-23 22:14:00,
2013-04-23 18:19:00,45.1,21.0,30.12,NNE,30,5.0,17.0,38,0.00,,---,0.00,VWS V14.01,2013-04-23 22:19:00,
2013-04-23 18:24:00,44.9,20.9,30.12,NNE,12,3.0,17.0,38,0.00,,---,0.00,VWS V14.01,2013-04-23 22:24:00,
2013-04-23 18:29:00,44.8,20.8,30.12,North,0,10.0,17.0,38,0.00,,---,0.00,VWS V14.01,2013-04-23 22:29:00,
2013-04-23 18:30:00,46.1,21.9,30.14,NNW,328,9.0,17.0,38,0.00,,---,0.00,VWS V14.01,2013-04-23 22:30:00,
2013-04-23 18:34:00,44.8,20.8,30.12,NNE,15,8.0,9.0,38,0.00,,---,0.00,VWS V14.01,2013-04-23 22:34:00,
2013-04-23 18:39:00,44.6,20.6,30.12,ENE,66,7.0,17.0,38,0.00,,---,0.00,VWS V14.01,2013-04-23 22:39:00,
2013-04-23 18:44:00,44.6,20.6,30.12,North,0,3.0,17.0,38,0.00,,---,0.00,VWS V14.01,2013-04-23 22:44:00,
2013-04-23 18:49:00,44.5,20.5,30.11,NNW,347,8.0,20.0,38,0.00,,---,0.00,VWS V14.01,2013-04-23 22:49:00,
2013-04-23 18:54:00,44.5,20.5,30.11,NNE,18,14.0,20.0,38,0.00,,---,0.00,VWS V14.01,2013-04-23 22:54:00,
2013-04-23 18:59:00,44.3,20.3,30.11,NNE,23,8.0,20.0,38,0.00,,---,0.00,VWS V14.01,2013-04-23 22:59:00,
2013-04-23 19:00:00,45.2,21.1,30.12,NNE,18,4.0,20.0,38,0.00,,---,0.00,VWS V14.01,2013-04-23 23:00:00,
2013-04-23 19:04:00,44.3,20.3,30.10,North,349,1.0,13.0,38,0.00,,---,0.00,VWS V14.01,2013-04-23 23:04:00,
2013-04-23 19:09:00,44.3,20.3,30.10,NE,45,6.0,13.0,38,0.00,,---,0.00,VWS V14.01,2013-04-23 23:09:00,
2013-04-23 19:14:00,44.3,20.3,30.10,North,0,7.0,15.0,38,0.00,,---,0.00,VWS V14.01,2013-04-23 23:14:00,
2013-04-23 19:19:00,44.3,20.3,30.10,East,84,4.0,15.0,38,0.00,,---,0.00,VWS V14.01,2013-04-23 23:19:00,
2013-04-23 19:24:00,44.3,20.3,30.10,NNE,32,6.0,18.0,38,0.00,,---,0.00,VWS V14.01,2013-04-23 23:24:00,
2013-04-23 19:29:00,44.3,20.3,30.10,NE,56,9.0,18.0,38,0.00,,---,0.00,VWS V14.01,2013-04-23 23:29:00,
2013-04-23 19:30:00,44.8,20.8,30.12,NE,39,2.0,17.0,38,0.00,,---,0.00,VWS V14.01,2013-04-23 23:30:00,
2013-04-23 19:34:00,44.3,20.3,30.08,NNE,15,7.0,12.0,38,0.00,,---,0.00,VWS V14.01,2013-04-23 23:34:00,
2013-04-23 19:39:00,44.3,20.3,30.08,North,6,9.0,12.0,38,0.00,,---,0.00,VWS V14.01,2013-04-23 23:39:00,
2013-04-23 19:44:00,44.2,20.2,30.08,North,11,4.0,12.0,38,0.00,,---,0.00,VWS V14.01,2013-04-23 23:44:00,
2013-04-23 19:49:00,44.2,20.2,30.08,NNE,23,5.0,12.0,38,0.00,,---,0.00,VWS V14.01,2013-04-23 23:49:00,
2013-04-23 19:54:00,44.2,20.2,30.08,North,358,9.0,17.0,38,0.00,,---,0.00,VWS V14.01,2013-04-23 23:54:00,
2013-04-23 19:59:00,44.1,20.1,30.08,NNE,18,5.0,17.0,38,0.00,,---,0.00,VWS V14.01,2013-04-23 23:59:00,
2013-04-23 20:00:00,44.3,20.3,30.10,NNE,13,8.0,20.0,38,0.00,,---,0.00,VWS V14.01,2013-04-24 00:00:00,
2013-04-23 20:04:00,44.1,20.1,30.08,NE,35,4.0,11.0,38,0.00,,---,0.00,VWS V14.01,2013-04-24 00:04:00,
2013-04-23 20:09:00,44.1,20.1,30.08,NNE,18,10.0,15.0,38,0.00,,---,0.00,VWS V14.01,2013-04-24 00:09:00,
2013-04-23 20:14:00,44.1,20.1,30.08,North,0,3.0,15.0,38,0.00,,---,0.00,VWS V14.01,2013-04-24 00:14:00,
2013-04-23 20:19:00,44.1,20.1,30.07,North,0,4.0,18.0,38,0.00,,---,0.00,VWS V14.01,2013-04-24 00:19:00,
2013-04-23 20:24:00,44.1,20.1,30.07,NNW,345,2.0,18.0,38,0.00,,---,0.00,VWS V14.01,2013-04-24 00:24:00,
2013-04-23 20:29:00,44.1,20.1,30.07,NNE,18,5.0,18.0,38,0.00,,---,0.00,VWS V14.01,2013-04-24 00:29:00,
2013-04-23 20:30:00,44.3,20.3,30.08,NE,53,7.0,18.0,38,0.00,,---,0.00,VWS V14.01,2013-04-24 00:30:00,
2013-04-23 20:34:00,44.1,20.1,30.07,North,359,10.0,16.0,38,0.00,,---,0.00,VWS V14.01,2013-04-24 00:34:00,
2013-04-23 20:39:00,44.1,20.1,30.07,NNE,12,3.0,16.0,38,0.00,,---,0.00,VWS V14.01,2013-04-24 00:39:00,
2013-04-23 20:44:00,44.1,20.1,30.07,NNE,13,4.0,16.0,38,0.00,,---,0.00,VWS V14.01,2013-04-24 00:44:00,
2013-04-23 20:49:00,44.1,20.1,30.07,NNE,20,10.0,16.0,38,0.00,,---,0.00,VWS V14.01,2013-04-24 00:49:00,
2013-04-23 20:54:00,44.1,20.1,30.07,NNE,20,6.0,16.0,38,0.00,,---,0.00,VWS V14.01,2013-04-24 00:54:00,
2013-04-23 20:59:00,44.1,20.1,30.07,NNE,33,11.0,17.0,38,0.00,,---,0.00,VWS V14.01,2013-04-24 00:59:00,
2013-04-23 21:00:00,44.1,20.1,30.08,NE,44,10.0,17.0,38,0.00,,---,0.00,VWS V14.01,2013-04-24 01:00:00,
2013-04-23 21:04:00,44.1,20.1,30.07,NE,42,5.0,12.0,38,0.00,,---,0.00,VWS V14.01,2013-04-24 01:04:00,
2013-04-23 21:09:00,44.2,20.2,30.07,North,11,9.0,12.0,38,0.00,,---,0.00,VWS V14.01,2013-04-24 01:09:00,
2013-04-23 21:14:00,44.2,20.2,30.07,NNE,26,6.0,17.0,38,0.00,,---,0.00,VWS V14.01,2013-04-24 01:14:00,
2013-04-23 21:19:00,44.2,20.2,30.07,NNE,13,4.0,17.0,38,0.00,,---,0.00,VWS V14.01,2013-04-24 01:19:00,
2013-04-23 21:24:00,44.2,20.2,30.07,NNE,15,7.0,17.0,38,0.00,,---,0.00,VWS V14.01,2013-04-24 01:24:00,
2013-04-23 21:29:00,44.2,20.2,30.07,NNE,27,5.0,17.0,38,0.00,,---,0.00,VWS V14.01,2013-04-24 01:29:00,
2013-04-23 21:30:00,44.1,20.1,30.07,North,9,6.0,18.0,38,0.00,,---,0.00,VWS V14.01,2013-04-24 01:30:00,
2013-04-23 21:34:00,44.2,20.2,30.07,NNE,19,6.0,14.0,38,0.00,,---,0.00,VWS V14.01,2013-04-24 01:34:00,
2013-04-23 21:39:00,44.2,20.2,30.07,NW,325,2.0,14.0,38,0.00,,---,0.00,VWS V14.01,2013-04-24 01:39:00,
2013-04-23 21:44:00,44.3,20.3,30.07,North,0,1.0,15.0,38,0.00,,---,0.00,VWS V14.01,2013-04-24 01:44:00,
2013-04-23 21:49:00,44.2,20.2,30.06,North,0,6.0,15.0,38,0.00,,---,0.00,VWS V14.01,2013-04-24 01:49:00,
2013-04-23 21:54:00,44.2,20.2,30.06,NNW,340,3.0,15.0,38,0.00,,---,0.00,VWS V14.01,2013-04-24 01:54:00,
2013-04-23 21:59:00,44.2,20.2,30.06,NNE,23,8.0,15.0,38,0.00,,---,0.00,VWS V14.01,2013-04-24 01:59:00,
2013-04-23 22:00:00,44.1,20.1,30.07,North,9,6.0,17.0,38,0.00,,---,0.00,VWS V14.01,2013-04-24 02:00:00,
2013-04-23 22:04:00,44.2,20.2,30.06,North,3,11.0,11.0,38,0.00,,---,0.00,VWS V14.01,2013-04-24 02:04:00,
2013-04-23 22:09:00,44.2,20.2,30.06,North,7,13.0,13.0,38,0.00,,---,0.00,VWS V14.01,2013-04-24 02:09:00,
2013-04-23 22:14:00,44.2,20.2,30.06,North,9,7.0,13.0,38,0.00,,---,0.00,VWS V14.01,2013-04-24 02:14:00,
2013-04-23 22:19:00,44.2,20.2,30.05,NNW,328,4.0,13.0,38,0.00,,---,0.00,VWS V14.01,2013-04-24 02:19:00,
2013-04-23 22:24:00,44.2,20.2,30.05,NNW,348,5.0,13.0,38,0.00,,---,0.00,VWS V14.01,2013-04-24 02:24:00,
2013-04-23 22:29:00,44.2,20.2,30.05,North,9,5.0,20.0,38,0.00,,---,0.00,VWS V14.01,2013-04-24 02:29:00,
2013-04-23 22:30:00,44.2,20.2,30.07,NNE,31,5.0,17.0,38,0.00,,---,0.00,VWS V14.01,2013-04-24 02:30:00,
2013-04-23 22:34:00,44.2,20.2,30.03,North,358,9.0,19.0,38,0.00,,---,0.00,VWS V14.01,2013-04-24 02:34:00,
2013-04-23 22:39:00,44.2,20.2,30.03,NE,44,5.0,19.0,38,0.00,,---,0.00,VWS V14.01,2013-04-24 02:39:00,
2013-04-23 22:44:00,44.2,20.2,30.03,NE,43,7.0,19.0,38,0.00,,---,0.00,VWS V14.01,2013-04-24 02:44:00,
2013-04-23 22:49:00,44.2,20.2,30.02,North,6,9.0,19.0,38,0.00,,---,0.00,VWS V14.01,2013-04-24 02:49:00,
2013-04-23 22:55:00,44.2,20.2,30.02,NE,39,7.0,19.0,38,0.00,,---,0.00,VWS V14.01,2013-04-24 02:55:00,
2013-04-23 23:00:00,44.2,20.2,30.02,North,0,5.0,19.0,38,0.00,,---,0.00,VWS V14.01,2013-04-24 03:00:00,
2013-04-23 23:05:00,44.2,20.2,30.01,ENE,62,3.0,12.0,38,0.00,,---,0.00,VWS V14.01,2013-04-24 03:05:00,
2013-04-23 23:10:00,44.2,20.2,30.01,North,0,4.0,12.0,38,0.00,,---,0.00,VWS V14.01,2013-04-24 03:10:00,
2013-04-23 23:15:00,44.2,20.2,29.99,NNE,25,8.0,12.0,38,0.00,,---,0.00,VWS V14.01,2013-04-24 03:15:00,
2013-04-23 23:20:00,44.2,20.2,29.99,NE,49,11.0,15.0,38,0.00,,---,0.00,VWS V14.01,2013-04-24 03:20:00,
2013-04-23 23:25:00,44.2,20.2,29.99,NNE,27,6.0,15.0,38,0.00,,---,0.00,VWS V14.01,2013-04-24 03:25:00,
2013-04-23 23:30:00,44.2,20.2,29.99,NE,37,9.0,15.0,38,0.00,,---,0.00,VWS V14.01,2013-04-24 03:30:00,
2013-04-23 23:36:00,44.3,20.3,29.99,North,6,9.0,13.0,38,0.00,,---,0.00,VWS V14.01,2013-04-24 03:36:00,
2013-04-23 23:41:00,44.3,20.3,29.99,NE,42,6.0,13.0,38,0.00,,---,0.00,VWS V14.01,2013-04-24 03:41:00,
2013-04-23 23:46:00,44.3,20.3,29.99,ENE,68,3.0,18.0,38,0.00,,---,0.00,VWS V14.01,2013-04-24 03:46:00,
2013-04-23 23:51:00,44.2,20.2,29.99,NNE,20,6.0,18.0,38,0.00,,---,0.00,VWS V14.01,2013-04-24 03:51:00,
2013-04-23 23:56:00,44.2,20.2,29.99,North,6,2.0,18.0,38,0.00,,---,0.00,VWS V14.01,2013-04-24 03:56:00,